sensor_id;sensor_type;location;lat;lon;timestamp;P1;durP1;ratioP1;P2;durP2;ratioP2
77822;SDS011;67013;49.730;17.292;2023-02-01T00:00:18;4.70;;;2.60;;
77822;SDS011;67013;49.730;17.292;2023-02-01T00:02:48;5.50;;;3.50;;
77822;SDS011;67013;49.730;17.292;2023-02-01T00:05:18;6.20;;;3.60;;
77822;SDS011;67013;49.730;17.292;2023-02-01T00:07:47;6.00;;;2.50;;
77822;SDS011;67013;49.730;17.292;2023-02-01T00:10:17;4.50;;;2.40;;
77822;SDS011;67013;49.730;17.292;2023-02-01T00:12:47;4.70;;;2.60;;
77822;SDS011;67013;49.730;17.292;2023-02-01T00:15:16;4.50;;;2.80;;
77822;SDS011;67013;49.730;17.292;2023-02-01T00:17:47;4.50;;;2.60;;
77822;SDS011;67013;49.730;17.292;2023-02-01T00:20:20;4.30;;;2.30;;
77822;SDS011;67013;49.730;17.292;2023-02-01T00:22:49;4.90;;;2.70;;
77822;SDS011;67013;49.730;17.292;2023-02-01T00:25:19;4.30;;;2.20;;
77822;SDS011;67013;49.730;17.292;2023-02-01T00:27:49;4.00;;;2.10;;
77822;SDS011;67013;49.730;17.292;2023-02-01T00:30:19;4.50;;;2.40;;
77822;SDS011;67013;49.730;17.292;2023-02-01T00:32:48;3.80;;;2.10;;
77822;SDS011;67013;49.730;17.292;2023-02-01T00:35:18;3.50;;;1.80;;
77822;SDS011;67013;49.730;17.292;2023-02-01T00:37:47;3.50;;;2.00;;
77822;SDS011;67013;49.730;17.292;2023-02-01T00:40:17;3.40;;;2.00;;
77822;SDS011;67013;49.730;17.292;2023-02-01T00:42:47;3.00;;;1.40;;
77822;SDS011;67013;49.730;17.292;2023-02-01T00:45:16;3.70;;;1.70;;
77822;SDS011;67013;49.730;17.292;2023-02-01T00:47:45;3.00;;;1.50;;
77822;SDS011;67013;49.730;17.292;2023-02-01T00:50:15;3.60;;;1.50;;
77822;SDS011;67013;49.730;17.292;2023-02-01T00:52:45;3.80;;;1.90;;
77822;SDS011;67013;49.730;17.292;2023-02-01T00:55:14;3.70;;;2.00;;
77822;SDS011;67013;49.730;17.292;2023-02-01T00:57:44;4.60;;;1.90;;
77822;SDS011;67013;49.730;17.292;2023-02-01T01:02:44;3.80;;;1.90;;
77822;SDS011;67013;49.730;17.292;2023-02-01T01:05:14;4.30;;;2.40;;
77822;SDS011;67013;49.730;17.292;2023-02-01T01:07:44;5.00;;;2.60;;
77822;SDS011;67013;49.730;17.292;2023-02-01T01:10:13;3.70;;;2.00;;
77822;SDS011;67013;49.730;17.292;2023-02-01T01:12:43;4.20;;;2.10;;
77822;SDS011;67013;49.730;17.292;2023-02-01T01:15:12;3.60;;;1.70;;
77822;SDS011;67013;49.730;17.292;2023-02-01T01:17:42;3.10;;;1.40;;
77822;SDS011;67013;49.730;17.292;2023-02-01T01:20:12;3.10;;;1.50;;
77822;SDS011;67013;49.730;17.292;2023-02-01T01:22:43;3.30;;;1.50;;
77822;SDS011;67013;49.730;17.292;2023-02-01T01:25:12;3.80;;;2.00;;
77822;SDS011;67013;49.730;17.292;2023-02-01T01:27:42;3.20;;;1.60;;
77822;SDS011;67013;49.730;17.292;2023-02-01T01:30:11;3.80;;;1.70;;
77822;SDS011;67013;49.730;17.292;2023-02-01T01:32:41;3.80;;;2.20;;
77822;SDS011;67013;49.730;17.292;2023-02-01T01:35:11;3.70;;;2.10;;
77822;SDS011;67013;49.730;17.292;2023-02-01T01:37:43;4.60;;;2.10;;
77822;SDS011;67013;49.730;17.292;2023-02-01T01:40:13;3.40;;;1.70;;
77822;SDS011;67013;49.730;17.292;2023-02-01T01:42:43;4.00;;;2.20;;
77822;SDS011;67013;49.730;17.292;2023-02-01T01:45:19;3.70;;;1.80;;
77822;SDS011;67013;49.730;17.292;2023-02-01T01:47:53;3.60;;;1.60;;
77822;SDS011;67013;49.730;17.292;2023-02-01T01:50:26;3.40;;;1.80;;
77822;SDS011;67013;49.730;17.292;2023-02-01T01:53:00;3.20;;;1.80;;
77822;SDS011;67013;49.730;17.292;2023-02-01T01:55:32;3.40;;;1.70;;
77822;SDS011;67013;49.730;17.292;2023-02-01T01:58:05;3.20;;;1.70;;
77822;SDS011;67013;49.730;17.292;2023-02-01T02:00:36;3.20;;;1.60;;
77822;SDS011;67013;49.730;17.292;2023-02-01T02:03:08;3.00;;;1.40;;
77822;SDS011;67013;49.730;17.292;2023-02-01T02:05:42;4.30;;;1.90;;
77822;SDS011;67013;49.730;17.292;2023-02-01T02:08:13;3.10;;;1.70;;
77822;SDS011;67013;49.730;17.292;2023-02-01T02:10:44;4.20;;;2.30;;
77822;SDS011;67013;49.730;17.292;2023-02-01T02:13:29;3.90;;;2.10;;
77822;SDS011;67013;49.730;17.292;2023-02-01T02:16:13;3.20;;;1.60;;
77822;SDS011;67013;49.730;17.292;2023-02-01T02:18:55;3.10;;;1.70;;
77822;SDS011;67013;49.730;17.292;2023-02-01T02:21:39;3.60;;;1.80;;
77822;SDS011;67013;49.730;17.292;2023-02-01T02:24:32;3.30;;;1.50;;
77822;SDS011;67013;49.730;17.292;2023-02-01T02:27:23;4.70;;;2.20;;
77822;SDS011;67013;49.730;17.292;2023-02-01T02:36:29;3.30;;;1.80;;
77822;SDS011;67013;49.730;17.292;2023-02-01T02:39:06;3.50;;;1.70;;
77822;SDS011;67013;49.730;17.292;2023-02-01T02:41:48;4.20;;;2.00;;
77822;SDS011;67013;49.730;17.292;2023-02-01T02:44:44;3.40;;;1.70;;
77822;SDS011;67013;49.730;17.292;2023-02-01T02:47:36;3.90;;;2.10;;
77822;SDS011;67013;49.730;17.292;2023-02-01T02:50:17;2.90;;;1.60;;
77822;SDS011;67013;49.730;17.292;2023-02-01T02:53:09;3.50;;;1.70;;
77822;SDS011;67013;49.730;17.292;2023-02-01T02:58:48;2.90;;;1.50;;
77822;SDS011;67013;49.730;17.292;2023-02-01T03:01:35;3.10;;;1.70;;
77822;SDS011;67013;49.730;17.292;2023-02-01T03:04:25;3.50;;;1.70;;
77822;SDS011;67013;49.730;17.292;2023-02-01T03:06:55;3.90;;;1.60;;
77822;SDS011;67013;49.730;17.292;2023-02-01T03:09:26;3.30;;;1.60;;
77822;SDS011;67013;49.730;17.292;2023-02-01T03:11:58;3.40;;;1.70;;
77822;SDS011;67013;49.730;17.292;2023-02-01T03:14:50;3.90;;;1.90;;
77822;SDS011;67013;49.730;17.292;2023-02-01T03:17:24;4.00;;;2.10;;
77822;SDS011;67013;49.730;17.292;2023-02-01T03:20:00;4.30;;;2.10;;
77822;SDS011;67013;49.730;17.292;2023-02-01T03:22:31;3.50;;;1.80;;
77822;SDS011;67013;49.730;17.292;2023-02-01T03:25:03;5.10;;;2.10;;
77822;SDS011;67013;49.730;17.292;2023-02-01T03:27:37;3.00;;;1.70;;
77822;SDS011;67013;49.730;17.292;2023-02-01T03:30:13;3.90;;;1.90;;
77822;SDS011;67013;49.730;17.292;2023-02-01T03:32:49;3.30;;;1.80;;
77822;SDS011;67013;49.730;17.292;2023-02-01T03:35:28;4.60;;;2.50;;
77822;SDS011;67013;49.730;17.292;2023-02-01T03:38:03;3.60;;;1.70;;
77822;SDS011;67013;49.730;17.292;2023-02-01T03:40:42;3.40;;;1.60;;
77822;SDS011;67013;49.730;17.292;2023-02-01T03:43:16;4.50;;;2.20;;
77822;SDS011;67013;49.730;17.292;2023-02-01T03:45:50;4.60;;;2.10;;
77822;SDS011;67013;49.730;17.292;2023-02-01T03:48:25;4.50;;;2.40;;
77822;SDS011;67013;49.730;17.292;2023-02-01T03:50:57;5.30;;;2.00;;
77822;SDS011;67013;49.730;17.292;2023-02-01T03:53:31;4.00;;;2.00;;
77822;SDS011;67013;49.730;17.292;2023-02-01T03:58:33;4.20;;;2.30;;
77822;SDS011;67013;49.730;17.292;2023-02-01T04:01:02;3.60;;;1.80;;
77822;SDS011;67013;49.730;17.292;2023-02-01T04:03:32;4.00;;;2.20;;
77822;SDS011;67013;49.730;17.292;2023-02-01T04:06:01;4.00;;;1.90;;
77822;SDS011;67013;49.730;17.292;2023-02-01T04:08:31;4.90;;;1.70;;
77822;SDS011;67013;49.730;17.292;2023-02-01T04:11:01;3.10;;;1.50;;
77822;SDS011;67013;49.730;17.292;2023-02-01T04:13:30;3.60;;;1.40;;
77822;SDS011;67013;49.730;17.292;2023-02-01T04:16:00;3.00;;;1.00;;
77822;SDS011;67013;49.730;17.292;2023-02-01T04:18:29;2.80;;;1.10;;
77822;SDS011;67013;49.730;17.292;2023-02-01T04:20:59;2.50;;;1.10;;
77822;SDS011;67013;49.730;17.292;2023-02-01T04:23:28;2.40;;;1.20;;
77822;SDS011;67013;49.730;17.292;2023-02-01T04:26:02;2.80;;;1.40;;
77822;SDS011;67013;49.730;17.292;2023-02-01T04:28:32;3.20;;;1.40;;
77822;SDS011;67013;49.730;17.292;2023-02-01T04:31:01;3.50;;;1.50;;
77822;SDS011;67013;49.730;17.292;2023-02-01T04:33:32;3.50;;;1.50;;
77822;SDS011;67013;49.730;17.292;2023-02-01T04:36:02;2.60;;;1.30;;
77822;SDS011;67013;49.730;17.292;2023-02-01T04:38:31;2.70;;;1.30;;
77822;SDS011;67013;49.730;17.292;2023-02-01T04:41:01;2.50;;;1.40;;
77822;SDS011;67013;49.730;17.292;2023-02-01T04:43:30;2.50;;;1.30;;
77822;SDS011;67013;49.730;17.292;2023-02-01T04:46:00;3.00;;;1.40;;
77822;SDS011;67013;49.730;17.292;2023-02-01T04:48:29;3.40;;;1.80;;
77822;SDS011;67013;49.730;17.292;2023-02-01T04:51:00;4.00;;;1.80;;
77822;SDS011;67013;49.730;17.292;2023-02-01T04:53:29;3.70;;;1.80;;
77822;SDS011;67013;49.730;17.292;2023-02-01T04:55:59;3.40;;;1.60;;
77822;SDS011;67013;49.730;17.292;2023-02-01T04:58:28;3.10;;;1.40;;
77822;SDS011;67013;49.730;17.292;2023-02-01T05:00:58;3.40;;;1.60;;
77822;SDS011;67013;49.730;17.292;2023-02-01T05:03:30;2.90;;;1.30;;
77822;SDS011;67013;49.730;17.292;2023-02-01T05:06:00;3.30;;;1.60;;
77822;SDS011;67013;49.730;17.292;2023-02-01T05:08:31;3.60;;;1.60;;
77822;SDS011;67013;49.730;17.292;2023-02-01T05:11:01;3.20;;;1.70;;
77822;SDS011;67013;49.730;17.292;2023-02-01T05:13:30;3.20;;;1.60;;
77822;SDS011;67013;49.730;17.292;2023-02-01T05:16:18;3.10;;;1.50;;
77822;SDS011;67013;49.730;17.292;2023-02-01T05:18:47;4.90;;;2.30;;
77822;SDS011;67013;49.730;17.292;2023-02-01T05:21:17;5.40;;;1.80;;
77822;SDS011;67013;49.730;17.292;2023-02-01T05:23:46;4.00;;;2.10;;
77822;SDS011;67013;49.730;17.292;2023-02-01T05:26:33;4.20;;;2.30;;
77822;SDS011;67013;49.730;17.292;2023-02-01T05:29:03;5.10;;;2.30;;
77822;SDS011;67013;49.730;17.292;2023-02-01T05:31:33;4.10;;;2.00;;
77822;SDS011;67013;49.730;17.292;2023-02-01T05:34:03;4.90;;;2.80;;
77822;SDS011;67013;49.730;17.292;2023-02-01T05:36:33;6.80;;;3.10;;
77822;SDS011;67013;49.730;17.292;2023-02-01T05:39:02;4.30;;;2.60;;
77822;SDS011;67013;49.730;17.292;2023-02-01T05:41:32;5.10;;;2.50;;
77822;SDS011;67013;49.730;17.292;2023-02-01T05:44:01;5.00;;;2.00;;
77822;SDS011;67013;49.730;17.292;2023-02-01T05:46:33;4.10;;;1.90;;
77822;SDS011;67013;49.730;17.292;2023-02-01T05:49:03;5.00;;;2.40;;
77822;SDS011;67013;49.730;17.292;2023-02-01T05:51:33;3.70;;;1.70;;
77822;SDS011;67013;49.730;17.292;2023-02-01T05:54:02;3.90;;;2.10;;
77822;SDS011;67013;49.730;17.292;2023-02-01T05:56:32;5.10;;;2.50;;
77822;SDS011;67013;49.730;17.292;2023-02-01T05:59:01;5.30;;;2.30;;
77822;SDS011;67013;49.730;17.292;2023-02-01T06:01:32;3.70;;;2.00;;
77822;SDS011;67013;49.730;17.292;2023-02-01T06:04:02;3.70;;;1.90;;
77822;SDS011;67013;49.730;17.292;2023-02-01T06:09:03;5.30;;;2.30;;
77822;SDS011;67013;49.730;17.292;2023-02-01T06:11:32;4.30;;;2.20;;
77822;SDS011;67013;49.730;17.292;2023-02-01T06:14:02;6.90;;;2.80;;
77822;SDS011;67013;49.730;17.292;2023-02-01T06:16:34;4.10;;;2.30;;
77822;SDS011;67013;49.730;17.292;2023-02-01T06:19:03;4.50;;;2.30;;
77822;SDS011;67013;49.730;17.292;2023-02-01T06:21:33;5.00;;;2.80;;
77822;SDS011;67013;49.730;17.292;2023-02-01T06:24:04;5.70;;;3.40;;
77822;SDS011;67013;49.730;17.292;2023-02-01T06:26:34;7.50;;;3.90;;
77822;SDS011;67013;49.730;17.292;2023-02-01T06:29:05;8.70;;;3.90;;
77822;SDS011;67013;49.730;17.292;2023-02-01T06:31:34;6.30;;;3.80;;
77822;SDS011;67013;49.730;17.292;2023-02-01T06:34:04;5.90;;;3.30;;
77822;SDS011;67013;49.730;17.292;2023-02-01T06:36:33;7.00;;;3.70;;
77822;SDS011;67013;49.730;17.292;2023-02-01T06:39:03;8.00;;;3.90;;
77822;SDS011;67013;49.730;17.292;2023-02-01T06:41:32;6.60;;;3.30;;
77822;SDS011;67013;49.730;17.292;2023-02-01T06:44:02;7.40;;;3.60;;
77822;SDS011;67013;49.730;17.292;2023-02-01T06:46:31;6.00;;;3.20;;
77822;SDS011;67013;49.730;17.292;2023-02-01T06:49:01;6.90;;;3.50;;
77822;SDS011;67013;49.730;17.292;2023-02-01T06:51:31;6.90;;;3.50;;
77822;SDS011;67013;49.730;17.292;2023-02-01T06:54:00;5.70;;;3.40;;
77822;SDS011;67013;49.730;17.292;2023-02-01T06:56:33;5.90;;;3.10;;
77822;SDS011;67013;49.730;17.292;2023-02-01T06:59:04;5.00;;;3.00;;
77822;SDS011;67013;49.730;17.292;2023-02-01T07:01:34;11.10;;;7.60;;
77822;SDS011;67013;49.730;17.292;2023-02-01T07:04:04;9.00;;;6.60;;
77822;SDS011;67013;49.730;17.292;2023-02-01T07:06:33;5.40;;;3.10;;
77822;SDS011;67013;49.730;17.292;2023-02-01T07:09:03;5.50;;;3.30;;
77822;SDS011;67013;49.730;17.292;2023-02-01T07:11:33;9.80;;;6.00;;
77822;SDS011;67013;49.730;17.292;2023-02-01T07:16:33;6.50;;;3.90;;
77822;SDS011;67013;49.730;17.292;2023-02-01T07:19:03;7.50;;;4.10;;
77822;SDS011;67013;49.730;17.292;2023-02-01T07:21:32;7.50;;;4.70;;
77822;SDS011;67013;49.730;17.292;2023-02-01T07:24:02;28.10;;;21.20;;
77822;SDS011;67013;49.730;17.292;2023-02-01T07:26:32;27.30;;;20.50;;
77822;SDS011;67013;49.730;17.292;2023-02-01T07:29:02;23.70;;;18.40;;
77822;SDS011;67013;49.730;17.292;2023-02-01T07:31:31;24.70;;;19.20;;
77822;SDS011;67013;49.730;17.292;2023-02-01T07:34:01;19.60;;;13.10;;
77822;SDS011;67013;49.730;17.292;2023-02-01T07:36:31;15.90;;;10.30;;
77822;SDS011;67013;49.730;17.292;2023-02-01T07:39:02;13.00;;;8.10;;
77822;SDS011;67013;49.730;17.292;2023-02-01T07:41:32;10.30;;;5.80;;
77822;SDS011;67013;49.730;17.292;2023-02-01T07:44:01;9.20;;;6.50;;
77822;SDS011;67013;49.730;17.292;2023-02-01T07:46:31;8.80;;;5.20;;
77822;SDS011;67013;49.730;17.292;2023-02-01T07:49:01;9.70;;;6.30;;
77822;SDS011;67013;49.730;17.292;2023-02-01T07:51:31;10.40;;;7.80;;
77822;SDS011;67013;49.730;17.292;2023-02-01T07:54:00;9.20;;;6.50;;
77822;SDS011;67013;49.730;17.292;2023-02-01T07:56:30;13.70;;;9.50;;
77822;SDS011;67013;49.730;17.292;2023-02-01T07:58:59;9.10;;;6.30;;
77822;SDS011;67013;49.730;17.292;2023-02-01T08:01:29;8.60;;;6.00;;
77822;SDS011;67013;49.730;17.292;2023-02-01T08:03:59;8.90;;;7.40;;
77822;SDS011;67013;49.730;17.292;2023-02-01T08:06:30;10.80;;;7.20;;
77822;SDS011;67013;49.730;17.292;2023-02-01T08:09:01;8.50;;;4.30;;
77822;SDS011;67013;49.730;17.292;2023-02-01T08:11:31;5.20;;;3.40;;
77822;SDS011;67013;49.730;17.292;2023-02-01T08:14:03;5.50;;;3.50;;
77822;SDS011;67013;49.730;17.292;2023-02-01T08:16:33;4.70;;;3.10;;
77822;SDS011;67013;49.730;17.292;2023-02-01T08:19:04;5.60;;;3.00;;
77822;SDS011;67013;49.730;17.292;2023-02-01T08:21:33;6.00;;;3.20;;
77822;SDS011;67013;49.730;17.292;2023-02-01T08:24:07;5.60;;;2.70;;
77822;SDS011;67013;49.730;17.292;2023-02-01T08:26:37;5.30;;;3.00;;
77822;SDS011;67013;49.730;17.292;2023-02-01T08:29:08;5.20;;;3.40;;
77822;SDS011;67013;49.730;17.292;2023-02-01T08:31:38;6.50;;;3.90;;
77822;SDS011;67013;49.730;17.292;2023-02-01T08:34:08;5.40;;;2.90;;
77822;SDS011;67013;49.730;17.292;2023-02-01T08:36:38;5.30;;;2.70;;
77822;SDS011;67013;49.730;17.292;2023-02-01T08:39:08;4.30;;;2.30;;
77822;SDS011;67013;49.730;17.292;2023-02-01T08:41:38;5.40;;;1.90;;
77822;SDS011;67013;49.730;17.292;2023-02-01T08:44:28;4.90;;;1.70;;
77822;SDS011;67013;49.730;17.292;2023-02-01T08:46:58;4.60;;;2.00;;
77822;SDS011;67013;49.730;17.292;2023-02-01T08:49:28;3.50;;;1.50;;
77822;SDS011;67013;49.730;17.292;2023-02-01T08:51:57;5.30;;;2.00;;
77822;SDS011;67013;49.730;17.292;2023-02-01T08:54:26;4.50;;;1.70;;
77822;SDS011;67013;49.730;17.292;2023-02-01T08:56:56;3.80;;;1.50;;
77822;SDS011;67013;49.730;17.292;2023-02-01T08:59:25;4.50;;;1.90;;
77822;SDS011;67013;49.730;17.292;2023-02-01T09:01:55;3.80;;;2.10;;
77822;SDS011;67013;49.730;17.292;2023-02-01T09:04:24;3.70;;;1.70;;
77822;SDS011;67013;49.730;17.292;2023-02-01T09:06:54;4.70;;;1.70;;
77822;SDS011;67013;49.730;17.292;2023-02-01T09:09:23;4.70;;;1.80;;
77822;SDS011;67013;49.730;17.292;2023-02-01T09:11:55;3.90;;;1.80;;
77822;SDS011;67013;49.730;17.292;2023-02-01T09:14:24;3.80;;;1.50;;
77822;SDS011;67013;49.730;17.292;2023-02-01T09:16:54;4.80;;;2.30;;
77822;SDS011;67013;49.730;17.292;2023-02-01T09:19:23;3.80;;;1.40;;
77822;SDS011;67013;49.730;17.292;2023-02-01T09:21:53;4.00;;;1.90;;
77822;SDS011;67013;49.730;17.292;2023-02-01T09:24:22;4.10;;;1.90;;
77822;SDS011;67013;49.730;17.292;2023-02-01T09:26:52;4.70;;;1.80;;
77822;SDS011;67013;49.730;17.292;2023-02-01T09:29:21;3.80;;;1.60;;
77822;SDS011;67013;49.730;17.292;2023-02-01T09:31:52;3.80;;;1.80;;
77822;SDS011;67013;49.730;17.292;2023-02-01T09:34:22;4.30;;;1.80;;
77822;SDS011;67013;49.730;17.292;2023-02-01T09:36:51;4.50;;;2.00;;
77822;SDS011;67013;49.730;17.292;2023-02-01T09:39:20;3.70;;;1.80;;
77822;SDS011;67013;49.730;17.292;2023-02-01T09:41:54;3.50;;;1.80;;
77822;SDS011;67013;49.730;17.292;2023-02-01T09:44:32;4.20;;;1.70;;
77822;SDS011;67013;49.730;17.292;2023-02-01T09:47:16;3.90;;;2.10;;
77822;SDS011;67013;49.730;17.292;2023-02-01T09:49:51;4.40;;;1.60;;
77822;SDS011;67013;49.730;17.292;2023-02-01T09:52:25;3.70;;;1.30;;
77822;SDS011;67013;49.730;17.292;2023-02-01T09:54:59;3.90;;;1.70;;
77822;SDS011;67013;49.730;17.292;2023-02-01T09:57:41;4.70;;;2.00;;
77822;SDS011;67013;49.730;17.292;2023-02-01T10:00:19;4.00;;;2.10;;
77822;SDS011;67013;49.730;17.292;2023-02-01T10:02:54;4.90;;;2.10;;
77822;SDS011;67013;49.730;17.292;2023-02-01T10:05:28;3.50;;;1.40;;
77822;SDS011;67013;49.730;17.292;2023-02-01T10:08:15;4.00;;;1.50;;
77822;SDS011;67013;49.730;17.292;2023-02-01T10:10:53;4.10;;;1.40;;
77822;SDS011;67013;49.730;17.292;2023-02-01T10:13:31;4.00;;;1.50;;
77822;SDS011;67013;49.730;17.292;2023-02-01T10:16:15;3.10;;;1.30;;
77822;SDS011;67013;49.730;17.292;2023-02-01T10:24:36;3.00;;;1.40;;
77822;SDS011;67013;49.730;17.292;2023-02-01T10:27:16;3.40;;;1.40;;
77822;SDS011;67013;49.730;17.292;2023-02-01T10:29:49;3.30;;;1.50;;
77822;SDS011;67013;49.730;17.292;2023-02-01T10:32:23;4.20;;;1.90;;
77822;SDS011;67013;49.730;17.292;2023-02-01T10:34:57;4.90;;;1.90;;
77822;SDS011;67013;49.730;17.292;2023-02-01T10:37:29;5.40;;;1.70;;
77822;SDS011;67013;49.730;17.292;2023-02-01T10:40:02;4.30;;;1.70;;
77822;SDS011;67013;49.730;17.292;2023-02-01T10:42:47;4.60;;;1.80;;
77822;SDS011;67013;49.730;17.292;2023-02-01T10:45:20;4.30;;;2.00;;
77822;SDS011;67013;49.730;17.292;2023-02-01T10:47:53;4.20;;;2.20;;
77822;SDS011;67013;49.730;17.292;2023-02-01T10:50:29;5.80;;;3.50;;
77822;SDS011;67013;49.730;17.292;2023-02-01T10:53:06;6.50;;;3.70;;
77822;SDS011;67013;49.730;17.292;2023-02-01T10:55:46;10.30;;;5.50;;
77822;SDS011;67013;49.730;17.292;2023-02-01T10:58:18;6.50;;;3.30;;
77822;SDS011;67013;49.730;17.292;2023-02-01T11:00:54;5.70;;;2.80;;
77822;SDS011;67013;49.730;17.292;2023-02-01T11:03:41;5.50;;;2.80;;
77822;SDS011;67013;49.730;17.292;2023-02-01T11:06:17;5.70;;;3.20;;
77822;SDS011;67013;49.730;17.292;2023-02-01T11:08:51;5.10;;;2.70;;
77822;SDS011;67013;49.730;17.292;2023-02-01T11:11:22;5.80;;;2.70;;
77822;SDS011;67013;49.730;17.292;2023-02-01T11:13:54;3.60;;;1.80;;
77822;SDS011;67013;49.730;17.292;2023-02-01T11:16:30;3.80;;;1.80;;
77822;SDS011;67013;49.730;17.292;2023-02-01T11:19:02;4.00;;;2.30;;
77822;SDS011;67013;49.730;17.292;2023-02-01T11:21:33;5.00;;;2.20;;
77822;SDS011;67013;49.730;17.292;2023-02-01T11:24:03;4.10;;;1.80;;
77822;SDS011;67013;49.730;17.292;2023-02-01T11:26:50;3.10;;;1.50;;
77822;SDS011;67013;49.730;17.292;2023-02-01T11:29:21;3.00;;;1.70;;
77822;SDS011;67013;49.730;17.292;2023-02-01T11:31:56;5.30;;;2.00;;
77822;SDS011;67013;49.730;17.292;2023-02-01T11:34:28;4.40;;;2.50;;
77822;SDS011;67013;49.730;17.292;2023-02-01T11:37:04;3.70;;;2.40;;
77822;SDS011;67013;49.730;17.292;2023-02-01T11:39:44;8.50;;;3.50;;
77822;SDS011;67013;49.730;17.292;2023-02-01T11:42:23;4.50;;;3.20;;
77822;SDS011;67013;49.730;17.292;2023-02-01T11:47:46;12.30;;;4.90;;
77822;SDS011;67013;49.730;17.292;2023-02-01T11:50:21;9.00;;;6.30;;
77822;SDS011;67013;49.730;17.292;2023-02-01T11:58:43;11.80;;;5.40;;
77822;SDS011;67013;49.730;17.292;2023-02-01T12:01:33;6.80;;;4.60;;
77822;SDS011;67013;49.730;17.292;2023-02-01T12:04:33;5.70;;;3.50;;
77822;SDS011;67013;49.730;17.292;2023-02-01T12:07:16;5.10;;;2.90;;
77822;SDS011;67013;49.730;17.292;2023-02-01T12:09:54;5.00;;;3.20;;
77822;SDS011;67013;49.730;17.292;2023-02-01T12:12:34;5.10;;;2.60;;
77822;SDS011;67013;49.730;17.292;2023-02-01T12:21:19;4.80;;;2.50;;
77822;SDS011;67013;49.730;17.292;2023-02-01T12:23:59;4.60;;;2.50;;
77822;SDS011;67013;49.730;17.292;2023-02-01T12:26:47;4.30;;;2.40;;
77822;SDS011;67013;49.730;17.292;2023-02-01T12:29:32;4.80;;;3.00;;
77822;SDS011;67013;49.730;17.292;2023-02-01T12:32:15;5.20;;;3.10;;
77822;SDS011;67013;49.730;17.292;2023-02-01T12:37:51;5.80;;;2.90;;
77822;SDS011;67013;49.730;17.292;2023-02-01T12:40:37;4.70;;;2.50;;
77822;SDS011;67013;49.730;17.292;2023-02-01T12:43:18;6.40;;;3.00;;
77822;SDS011;67013;49.730;17.292;2023-02-01T12:45:55;6.90;;;4.40;;
77822;SDS011;67013;49.730;17.292;2023-02-01T12:48:31;5.40;;;3.20;;
77822;SDS011;67013;49.730;17.292;2023-02-01T12:51:06;6.10;;;3.00;;
77822;SDS011;67013;49.730;17.292;2023-02-01T12:53:44;5.00;;;2.70;;
77822;SDS011;67013;49.730;17.292;2023-02-01T12:56:24;4.60;;;2.40;;
77822;SDS011;67013;49.730;17.292;2023-02-01T12:58:59;4.60;;;2.80;;
77822;SDS011;67013;49.730;17.292;2023-02-01T13:01:34;5.00;;;3.20;;
77822;SDS011;67013;49.730;17.292;2023-02-01T13:04:08;5.20;;;3.10;;
77822;SDS011;67013;49.730;17.292;2023-02-01T13:06:44;5.90;;;3.30;;
77822;SDS011;67013;49.730;17.292;2023-02-01T13:09:22;4.50;;;2.60;;
77822;SDS011;67013;49.730;17.292;2023-02-01T13:11:57;4.20;;;2.10;;
77822;SDS011;67013;49.730;17.292;2023-02-01T13:14:35;4.50;;;2.20;;
77822;SDS011;67013;49.730;17.292;2023-02-01T13:17:11;4.90;;;1.80;;
77822;SDS011;67013;49.730;17.292;2023-02-01T13:19:45;4.20;;;2.20;;
77822;SDS011;67013;49.730;17.292;2023-02-01T13:22:19;4.40;;;1.60;;
77822;SDS011;67013;49.730;17.292;2023-02-01T13:24:52;3.40;;;1.70;;
77822;SDS011;67013;49.730;17.292;2023-02-01T13:27:25;4.00;;;2.10;;
77822;SDS011;67013;49.730;17.292;2023-02-01T13:29:57;3.70;;;2.00;;
77822;SDS011;67013;49.730;17.292;2023-02-01T13:41:35;4.30;;;2.20;;
77822;SDS011;67013;49.730;17.292;2023-02-01T13:44:19;4.40;;;2.10;;
77822;SDS011;67013;49.730;17.292;2023-02-01T13:46:56;4.40;;;2.10;;
77822;SDS011;67013;49.730;17.292;2023-02-01T13:49:37;4.90;;;2.40;;
77822;SDS011;67013;49.730;17.292;2023-02-01T13:52:17;4.00;;;2.20;;
77822;SDS011;67013;49.730;17.292;2023-02-01T13:55:13;4.30;;;2.20;;
77822;SDS011;67013;49.730;17.292;2023-02-01T13:57:58;4.40;;;2.10;;
77822;SDS011;67013;49.730;17.292;2023-02-01T14:00:31;5.00;;;2.70;;
77822;SDS011;67013;49.730;17.292;2023-02-01T14:03:12;4.60;;;2.30;;
77822;SDS011;67013;49.730;17.292;2023-02-01T14:05:57;4.40;;;2.20;;
77822;SDS011;67013;49.730;17.292;2023-02-01T14:08:45;3.80;;;2.20;;
77822;SDS011;67013;49.730;17.292;2023-02-01T14:11:37;5.30;;;3.10;;
77822;SDS011;67013;49.730;17.292;2023-02-01T14:25:45;4.20;;;2.40;;
77822;SDS011;67013;49.730;17.292;2023-02-01T14:28:28;5.00;;;2.20;;
77822;SDS011;67013;49.730;17.292;2023-02-01T14:30:58;4.80;;;2.40;;
77822;SDS011;67013;49.730;17.292;2023-02-01T14:33:28;3.90;;;2.40;;
77822;SDS011;67013;49.730;17.292;2023-02-01T14:36:08;5.40;;;2.70;;
77822;SDS011;67013;49.730;17.292;2023-02-01T14:38:39;5.00;;;2.40;;
77822;SDS011;67013;49.730;17.292;2023-02-01T14:41:23;3.80;;;2.20;;
77822;SDS011;67013;49.730;17.292;2023-02-01T14:50:20;6.90;;;2.90;;
77822;SDS011;67013;49.730;17.292;2023-02-01T14:55:52;5.00;;;2.30;;
77822;SDS011;67013;49.730;17.292;2023-02-01T14:58:31;6.40;;;3.30;;
77822;SDS011;67013;49.730;17.292;2023-02-01T15:01:15;7.20;;;3.70;;
77822;SDS011;67013;49.730;17.292;2023-02-01T15:04:03;8.90;;;4.40;;
77822;SDS011;67013;49.730;17.292;2023-02-01T15:06:40;9.20;;;6.20;;
77822;SDS011;67013;49.730;17.292;2023-02-01T15:09:12;11.40;;;7.50;;
77822;SDS011;67013;49.730;17.292;2023-02-01T15:11:59;12.90;;;9.40;;
77822;SDS011;67013;49.730;17.292;2023-02-01T15:14:31;26.20;;;20.60;;
77822;SDS011;67013;49.730;17.292;2023-02-01T15:17:03;31.30;;;21.20;;
77822;SDS011;67013;49.730;17.292;2023-02-01T15:19:53;19.80;;;14.10;;
77822;SDS011;67013;49.730;17.292;2023-02-01T15:22:24;23.60;;;16.00;;
77822;SDS011;67013;49.730;17.292;2023-02-01T15:24:55;22.10;;;15.80;;
77822;SDS011;67013;49.730;17.292;2023-02-01T15:27:27;23.90;;;15.80;;
77822;SDS011;67013;49.730;17.292;2023-02-01T15:30:05;12.10;;;7.60;;
77822;SDS011;67013;49.730;17.292;2023-02-01T15:32:37;9.60;;;7.90;;
77822;SDS011;67013;49.730;17.292;2023-02-01T15:38:19;14.90;;;9.60;;
77822;SDS011;67013;49.730;17.292;2023-02-01T15:43:28;12.70;;;8.60;;
77822;SDS011;67013;49.730;17.292;2023-02-01T15:46:00;19.20;;;16.10;;
77822;SDS011;67013;49.730;17.292;2023-02-01T15:48:36;17.60;;;11.30;;
77822;SDS011;67013;49.730;17.292;2023-02-01T15:51:15;7.50;;;4.20;;
77822;SDS011;67013;49.730;17.292;2023-02-01T15:53:48;10.90;;;7.40;;
77822;SDS011;67013;49.730;17.292;2023-02-01T15:56:23;11.10;;;8.40;;
77822;SDS011;67013;49.730;17.292;2023-02-01T16:01:24;8.50;;;4.00;;
77822;SDS011;67013;49.730;17.292;2023-02-01T16:04:03;6.40;;;4.70;;
77822;SDS011;67013;49.730;17.292;2023-02-01T16:06:46;5.70;;;3.30;;
77822;SDS011;67013;49.730;17.292;2023-02-01T16:09:17;6.30;;;3.70;;
77822;SDS011;67013;49.730;17.292;2023-02-01T16:11:51;6.40;;;3.50;;
77822;SDS011;67013;49.730;17.292;2023-02-01T16:14:24;6.60;;;3.30;;
77822;SDS011;67013;49.730;17.292;2023-02-01T16:16:54;7.40;;;4.50;;
77822;SDS011;67013;49.730;17.292;2023-02-01T16:19:25;7.10;;;4.60;;
77822;SDS011;67013;49.730;17.292;2023-02-01T16:21:55;7.90;;;4.40;;
77822;SDS011;67013;49.730;17.292;2023-02-01T16:24:25;11.50;;;5.50;;
77822;SDS011;67013;49.730;17.292;2023-02-01T16:26:55;11.40;;;6.90;;
77822;SDS011;67013;49.730;17.292;2023-02-01T16:29:24;10.50;;;6.60;;
77822;SDS011;67013;49.730;17.292;2023-02-01T16:31:54;8.10;;;4.50;;